Vattmanville, Texas
Current Conditions -  °F | °C
As of 1:56 PM on Wednesday 26 Nov 2014 (Local Time) from KNQI Reporting Station
Clear Clear  
Wind Chill: 24°   Ceiling: Unl
Heat Index: 24°   Visibility: 10mi
Dew Point:   Wind: 15mph
Humidity: 28%   Direction: 210°SSW
Pressure: 30.21"   Gusts: NA
Location:  27.3193°N, 97.8839°W
Report Text: KNQI 261956Z 21013KT 10SM CLR 24/04 A3021 RMK AO2 SLP227 T02390044
Loading
Personal Weather Stations






























Interactive Weather Map New forecast layout! Learn more

10-Day Weather Forecast

Advertisements
Track Severe Weather on mobile